Time;durP1;ratioP1;P1;durP2;ratioP2;P2;SDS_P1;SDS_P2;PMS_P1;PMS_P2;Temp;Humidity;BMP_temperature;BMP_pressure;BME280_temperature;BME280_humidity;BME280_pressure;Samples;Min_cycle;Max_cycle;Signal;HPM_P1;HPM_P2
2020/12/28 00:02:11;;;;;;;5.25;3.47;;;4.20;99.90;;;;;;5058427;28;20035;-79
2020/12/28 00:04:37;;;;;;;5.07;3.13;;;4.20;99.90;;;;;;5052847;28;20028;-80
2020/12/28 00:07:03;;;;;;;4.38;2.92;;;4.30;99.90;;;;;;5050506;28;20103;-80
2020/12/28 00:09:28;;;;;;;6.95;3.78;;;4.30;99.90;;;;;;5049221;28;20486;-79
2020/12/28 00:11:55;;;;;;;4.93;3.25;;;4.30;99.90;;;;;;5051036;28;20466;-80
2020/12/28 00:14:25;;;;;;;5.43;3.40;;;4.30;99.90;;;;;;5049144;28;20383;-80
2020/12/28 00:16:51;;;;;;;4.95;3.40;;;4.30;99.90;;;;;;5048791;28;20029;-79
2020/12/28 00:19:17;;;;;;;5.18;3.22;;;4.40;99.90;;;;;;5049039;28;20028;-79
2020/12/28 00:21:43;;;;;;;4.72;3.30;;;4.30;99.90;;;;;;5049405;28;20029;-80
2020/12/28 00:24:10;;;;;;;5.35;2.67;;;4.40;99.90;;;;;;5048501;28;20036;-79
2020/12/28 00:26:40;;;;;;;4.97;3.25;;;4.40;99.90;;;;;;5049238;28;20032;-80
2020/12/28 00:29:06;;;;;;;5.15;3.38;;;4.40;99.90;;;;;;5057934;28;20031;-79
2020/12/28 00:31:32;;;;;;;4.03;2.97;;;4.40;99.90;;;;;;5049332;28;20028;-80
2020/12/28 00:33:58;;;;;;;4.53;3.05;;;4.40;99.90;;;;;;5055110;28;20116;-80
2020/12/28 00:36:23;;;;;;;4.75;2.63;;;4.40;99.90;;;;;;5049308;28;20523;-80
2020/12/28 00:38:49;;;;;;;4.50;3.08;;;4.50;99.90;;;;;;5048707;28;20123;-80
2020/12/28 00:41:15;;;;;;;5.32;3.17;;;4.50;99.90;;;;;;5050141;28;20096;-80
2020/12/28 00:43:41;;;;;;;5.28;3.55;;;4.50;99.90;;;;;;5048550;28;20049;-80
2020/12/28 00:46:08;;;;;;;4.60;3.30;;;4.40;99.90;;;;;;5050307;28;20059;-80
2020/12/28 00:48:33;;;;;;;4.53;2.90;;;4.50;99.90;;;;;;5060391;28;20032;-80
2020/12/28 00:50:59;;;;;;;5.32;3.13;;;4.40;99.90;;;;;;5049607;28;20028;-80
2020/12/28 00:53:25;;;;;;;6.50;3.03;;;4.40;99.90;;;;;;5050904;28;20381;-79
2020/12/28 00:55:50;;;;;;;4.13;2.95;;;4.40;99.90;;;;;;5067653;28;20033;-80
2020/12/28 00:58:16;;;;;;;4.75;3.13;;;4.40;99.90;;;;;;5063626;28;20052;-79
2020/12/28 01:00:41;;;;;;;5.97;3.10;;;4.40;99.90;;;;;;5048350;28;20033;-80
2020/12/28 01:03:07;;;;;;;5.30;3.13;;;4.40;99.90;;;;;;5058986;28;20039;-80
2020/12/28 01:05:32;;;;;;;4.68;3.40;;;4.40;99.90;;;;;;5050602;28;20071;-80
2020/12/28 01:07:58;;;;;;;3.63;2.70;;;4.40;99.90;;;;;;5064928;28;20074;-79
2020/12/28 01:10:25;;;;;;;4.05;2.78;;;4.50;99.90;;;;;;5048226;28;20412;-80
2020/12/28 01:12:51;;;;;;;4.32;3.20;;;4.50;99.90;;;;;;5039292;28;20085;-79
2020/12/28 01:15:16;;;;;;;3.90;2.95;;;4.50;99.90;;;;;;5048549;28;20028;-79
2020/12/28 01:17:42;;;;;;;3.97;2.83;;;4.50;99.90;;;;;;5048409;28;20040;-79
2020/12/28 01:20:07;;;;;;;7.70;3.15;;;4.50;99.90;;;;;;5051483;28;20123;-78
2020/12/28 01:22:34;;;;;;;4.38;2.80;;;4.50;99.90;;;;;;5067634;28;20055;-80
2020/12/28 01:25:00;;;;;;;3.80;2.50;;;4.50;99.90;;;;;;5049166;28;20075;-79
2020/12/28 01:27:25;;;;;;;3.97;2.53;;;4.60;99.90;;;;;;5049335;28;20025;-80
2020/12/28 01:29:51;;;;;;;6.85;2.70;;;4.50;99.90;;;;;;5047544;28;20036;-80
2020/12/28 01:32:16;;;;;;;4.13;2.95;;;4.50;99.90;;;;;;5063899;28;20020;-80
2020/12/28 01:34:42;;;;;;;9.13;3.20;;;4.50;99.90;;;;;;5048548;28;20052;-79
2020/12/28 01:37:07;;;;;;;5.28;2.72;;;4.60;99.90;;;;;;5049381;28;20063;-79
2020/12/28 01:39:33;;;;;;;5.53;2.85;;;4.60;99.90;;;;;;5048922;28;20029;-79
2020/12/28 01:41:58;;;;;;;5.90;2.95;;;4.60;99.90;;;;;;5054036;28;20027;-79
2020/12/28 01:44:24;;;;;;;4.07;2.72;;;4.60;99.90;;;;;;5063709;28;20028;-79
2020/12/28 01:46:51;;;;;;;2.92;2.42;;;4.60;99.90;;;;;;5052693;28;20034;-79
2020/12/28 01:49:16;;;;;;;3.55;2.58;;;4.60;99.90;;;;;;5050967;28;20385;-80
2020/12/28 01:51:44;;;;;;;3.53;2.60;;;4.60;99.90;;;;;;5051452;28;20032;-79
2020/12/28 01:54:11;;;;;;;3.65;2.50;;;4.60;99.90;;;;;;5044134;28;20368;-80
2020/12/28 01:56:38;;;;;;;4.50;2.92;;;4.60;99.90;;;;;;5057592;28;20025;-80
2020/12/28 01:59:03;;;;;;;5.30;2.38;;;4.60;99.90;;;;;;5057997;28;20032;-80
2020/12/28 02:01:38;;;;;;;4.30;2.80;;;4.60;99.90;;;;;;5055396;28;20032;-80
2020/12/28 02:04:04;;;;;;;3.65;2.72;;;4.60;99.90;;;;;;5052895;28;20496;-80
2020/12/28 02:06:29;;;;;;;4.60;2.40;;;4.60;99.90;;;;;;5070217;28;20032;-80
2020/12/28 02:08:55;;;;;;;6.65;2.63;;;4.60;99.90;;;;;;5059197;28;20029;-80
2020/12/28 02:11:20;;;;;;;5.80;2.80;;;4.60;99.90;;;;;;5066406;28;20020;-80
2020/12/28 02:13:46;;;;;;;3.28;2.38;;;4.60;99.90;;;;;;5060628;28;20547;-80
2020/12/28 02:16:12;;;;;;;3.63;2.72;;;4.60;99.90;;;;;;5051349;28;20020;-80
2020/12/28 02:18:37;;;;;;;4.47;2.67;;;4.60;99.90;;;;;;5059348;28;20036;-80
2020/12/28 02:21:03;;;;;;;5.15;2.70;;;4.70;99.90;;;;;;5051173;28;20032;-80
2020/12/28 02:23:28;;;;;;;4.43;2.83;;;4.70;99.90;;;;;;5070015;28;20036;-80
2020/12/28 02:25:54;;;;;;;3.17;2.28;;;4.70;99.90;;;;;;5053876;28;20052;-80
2020/12/28 02:28:19;;;;;;;4.72;2.83;;;4.70;99.90;;;;;;5054199;28;20031;-80
2020/12/28 02:30:45;;;;;;;4.57;2.97;;;4.70;99.90;;;;;;5072290;28;20036;-80
2020/12/28 02:33:11;;;;;;;5.53;2.90;;;4.80;99.90;;;;;;5054480;28;20476;-80
2020/12/28 02:35:36;;;;;;;4.60;3.00;;;4.70;99.90;;;;;;5054591;28;20468;-80
2020/12/28 02:38:02;;;;;;;4.22;3.03;;;4.70;99.90;;;;;;5071865;28;20043;-80
2020/12/28 02:40:28;;;;;;;3.50;2.72;;;4.70;99.90;;;;;;5054423;28;20052;-80
2020/12/28 02:42:53;;;;;;;4.45;2.55;;;4.80;99.90;;;;;;5066610;28;20098;-80
2020/12/28 02:45:19;;;;;;;7.03;2.80;;;4.80;99.90;;;;;;5057227;28;20031;-80
2020/12/28 02:47:44;;;;;;;4.20;2.95;;;4.70;99.90;;;;;;5072353;28;20056;-80
2020/12/28 02:50:10;;;;;;;3.80;2.85;;;4.70;99.90;;;;;;5072097;28;20439;-80
2020/12/28 02:52:35;;;;;;;3.63;2.65;;;4.80;99.90;;;;;;5054112;28;20120;-80
2020/12/28 02:55:01;;;;;;;3.35;2.22;;;4.80;99.90;;;;;;5072416;28;20021;-80
2020/12/28 02:57:26;;;;;;;3.33;2.42;;;4.80;99.90;;;;;;5071424;28;20474;-80
2020/12/28 02:59:52;;;;;;;3.97;2.80;;;4.80;99.90;;;;;;5071581;28;20385;-80
2020/12/28 03:02:17;;;;;;;2.90;2.30;;;4.80;99.90;;;;;;5054279;28;20036;-80
2020/12/28 03:04:43;;;;;;;4.13;2.95;;;4.90;99.90;;;;;;5054003;28;20036;-81
2020/12/28 03:07:09;;;;;;;4.75;2.75;;;4.80;99.90;;;;;;5054248;28;20029;-80
2020/12/28 03:09:34;;;;;;;3.45;2.53;;;4.90;99.90;;;;;;5054244;28;20107;-79
2020/12/28 03:12:00;;;;;;;4.00;2.70;;;4.90;99.90;;;;;;5054003;28;20028;-80
2020/12/28 03:14:25;;;;;;;5.95;2.90;;;4.90;99.90;;;;;;5055747;28;20024;-80
2020/12/28 03:16:51;;;;;;;3.90;2.55;;;4.90;99.90;;;;;;5064884;28;20020;-80
2020/12/28 03:19:16;;;;;;;4.88;2.55;;;4.90;99.90;;;;;;5059263;28;20028;-80
2020/12/28 03:21:42;;;;;;;7.63;2.58;;;4.90;99.90;;;;;;5063133;28;20115;-80
2020/12/28 03:24:07;;;;;;;5.85;2.60;;;4.90;99.90;;;;;;5053641;28;20183;-79
2020/12/28 03:26:33;;;;;;;3.40;2.38;;;4.90;99.90;;;;;;5071978;28;20431;-80
2020/12/28 03:28:58;;;;;;;4.03;2.42;;;4.90;99.90;;;;;;5070937;28;20044;-79
2020/12/28 03:31:28;;;;;;;3.95;2.78;;;4.90;99.90;;;;;;5053327;28;20021;-80
2020/12/28 03:33:54;;;;;;;3.28;2.45;;;4.80;99.90;;;;;;5053508;28;20035;-80
2020/12/28 03:36:19;;;;;;;3.10;2.55;;;4.90;99.90;;;;;;5071209;28;20055;-80
2020/12/28 03:38:45;;;;;;;3.53;2.35;;;4.80;99.90;;;;;;5070667;28;20024;-80
2020/12/28 03:41:12;;;;;;;3.55;2.40;;;4.80;99.90;;;;;;5079666;28;20031;-80
2020/12/28 03:43:38;;;;;;;6.95;2.55;;;4.80;99.90;;;;;;5064053;28;20045;-80
2020/12/28 03:46:03;;;;;;;4.55;2.40;;;4.90;99.90;;;;;;5069678;28;20081;-80
2020/12/28 03:48:29;;;;;;;3.72;2.25;;;4.90;99.90;;;;;;5083500;28;20035;-80
2020/12/28 03:50:55;;;;;;;3.65;2.55;;;4.90;99.90;;;;;;5053269;28;20035;-80
2020/12/28 03:53:20;;;;;;;4.15;2.50;;;4.90;99.90;;;;;;5071157;28;20029;-80
2020/12/28 03:55:46;;;;;;;7.55;2.17;;;4.90;99.90;;;;;;5053148;28;20020;-80
2020/12/28 03:58:11;;;;;;;3.05;2.40;;;4.90;99.90;;;;;;5051995;28;20132;-79
2020/12/28 04:00:37;;;;;;;4.90;2.70;;;4.90;99.90;;;;;;5062788;28;20051;-79
2020/12/28 04:03:02;;;;;;;6.15;2.47;;;4.90;99.90;;;;;;5062052;28;20071;-79
2020/12/28 04:05:28;;;;;;;9.00;2.60;;;4.90;99.90;;;;;;5057311;28;20053;-80
2020/12/28 04:07:54;;;;;;;6.32;2.88;;;4.90;99.90;;;;;;5052671;28;20051;-80
2020/12/28 04:10:19;;;;;;;5.32;2.42;;;4.90;99.90;;;;;;5071016;28;20028;-80
2020/12/28 04:12:45;;;;;;;4.15;2.63;;;4.90;99.90;;;;;;5052973;28;20031;-80
2020/12/28 04:15:10;;;;;;;4.63;2.22;;;4.90;99.90;;;;;;5067751;28;20495;-80
2020/12/28 04:17:36;;;;;;;3.65;2.42;;;4.80;99.90;;;;;;5071880;28;20081;-80
2020/12/28 04:20:02;;;;;;;3.40;2.60;;;4.80;99.90;;;;;;5052243;28;20024;-80
2020/12/28 04:22:28;;;;;;;3.58;2.40;;;4.80;99.90;;;;;;5064745;28;20107;-80
2020/12/28 04:24:53;;;;;;;3.88;2.85;;;4.80;99.90;;;;;;5052682;28;20032;-80
2020/12/28 04:27:19;;;;;;;3.28;2.30;;;4.80;99.90;;;;;;5052357;28;20035;-80
2020/12/28 04:29:44;;;;;;;5.32;2.75;;;4.80;99.90;;;;;;5051931;28;20028;-80
2020/12/28 04:32:10;;;;;;;4.30;2.60;;;4.80;99.90;;;;;;5052083;28;20051;-80
2020/12/28 04:34:35;;;;;;;4.80;2.90;;;4.80;99.90;;;;;;5063515;28;20028;-80
2020/12/28 04:37:01;;;;;;;3.80;2.70;;;4.70;99.90;;;;;;5071422;28;20379;-80
2020/12/28 04:39:27;;;;;;;3.95;2.95;;;4.70;99.90;;;;;;5055980;28;20079;-80
2020/12/28 04:41:52;;;;;;;5.25;2.63;;;4.80;99.90;;;;;;5051758;28;20077;-81
2020/12/28 04:44:18;;;;;;;4.22;2.83;;;4.80;99.90;;;;;;5051592;28;20040;-80
2020/12/28 04:46:44;;;;;;;5.57;3.28;;;4.70;99.90;;;;;;5051841;28;20032;-80
2020/12/28 04:49:09;;;;;;;3.67;2.80;;;4.70;99.90;;;;;;5051791;28;20032;-80
2020/12/28 04:51:35;;;;;;;5.03;3.47;;;4.70;99.90;;;;;;5070365;28;20369;-80
2020/12/28 04:54:01;;;;;;;5.07;2.72;;;4.80;99.90;;;;;;5079471;28;20035;-80
2020/12/28 04:56:26;;;;;;;9.05;3.22;;;4.70;99.90;;;;;;5071637;28;20020;-80
2020/12/28 04:58:52;;;;;;;6.18;3.10;;;4.70;99.90;;;;;;5079546;28;20037;-80
2020/12/28 05:01:18;;;;;;;7.97;3.70;;;4.70;99.90;;;;;;5081236;28;20107;-80
2020/12/28 05:03:44;;;;;;;5.45;2.75;;;4.60;99.90;;;;;;5059547;28;20040;-80
2020/12/28 05:06:09;;;;;;;3.47;2.78;;;4.60;99.90;;;;;;5055660;28;20469;-81
2020/12/28 05:08:35;;;;;;;4.88;2.88;;;4.60;99.90;;;;;;5051528;28;20039;-80
2020/12/28 05:11:12;;;;;;;5.18;3.15;;;4.60;99.90;;;;;;5070410;28;20058;-80
2020/12/28 05:13:39;;;;;;;4.30;2.85;;;4.60;99.90;;;;;;5050896;28;20032;-81
2020/12/28 05:16:04;;;;;;;6.32;3.30;;;4.60;99.90;;;;;;5064007;28;20070;-80
2020/12/28 05:18:32;;;;;;;4.15;2.67;;;4.60;99.90;;;;;;5063085;28;20412;-80
2020/12/28 05:20:57;;;;;;;5.57;3.15;;;4.60;99.90;;;;;;5051071;28;20119;-80
2020/12/28 05:23:23;;;;;;;4.35;2.95;;;4.70;99.90;;;;;;5071301;28;20123;-80
2020/12/28 05:25:50;;;;;;;4.72;2.88;;;4.70;99.90;;;;;;5056192;28;20451;-80
2020/12/28 05:28:26;;;;;;;5.35;3.17;;;4.60;99.90;;;;;;5032554;28;20074;-80
2020/12/28 05:30:51;;;;;;;4.43;3.30;;;4.60;99.90;;;;;;5047676;28;20020;-80
2020/12/28 05:33:18;;;;;;;5.68;3.50;;;4.60;99.90;;;;;;5049932;28;20097;-80
2020/12/28 05:35:44;;;;;;;5.88;3.65;;;4.60;99.90;;;;;;5050538;28;20028;-80
2020/12/28 05:38:12;;;;;;;4.65;3.63;;;4.70;99.90;;;;;;5049949;28;20051;-80
2020/12/28 05:40:38;;;;;;;5.82;3.38;;;4.70;99.90;;;;;;5050839;28;20025;-80
2020/12/28 05:43:04;;;;;;;8.07;4.03;;;4.60;99.90;;;;;;5043917;28;20044;-80
2020/12/28 05:45:32;;;;;;;15.10;4.60;;;4.70;99.90;;;;;;5049084;28;20104;-80
2020/12/28 05:47:59;;;;;;;10.80;4.63;;;4.60;99.90;;;;;;5048751;28;20112;-80
2020/12/28 05:50:30;;;;;;;8.73;3.92;;;4.60;99.90;;;;;;5047842;28;20495;-80
2020/12/28 05:52:58;;;;;;;8.50;4.07;;;4.60;99.90;;;;;;5046675;28;20021;-80
2020/12/28 05:55:29;;;;;;;8.13;4.78;;;4.70;99.90;;;;;;5044376;28;20159;-80
2020/12/28 05:57:55;;;;;;;6.45;4.60;;;4.70;99.90;;;;;;5046858;28;20037;-80
2020/12/28 06:00:21;;;;;;;9.10;5.95;;;4.70;99.90;;;;;;5050642;28;20032;-80
2020/12/28 06:02:47;;;;;;;10.82;5.50;;;4.70;99.90;;;;;;5053287;28;20041;-80
2020/12/28 06:05:15;;;;;;;6.78;4.32;;;4.60;99.90;;;;;;5056374;28;20358;-80
2020/12/28 06:07:41;;;;;;;6.78;4.35;;;4.60;99.90;;;;;;5052299;28;20021;-80
2020/12/28 06:10:08;;;;;;;8.18;3.85;;;4.70;99.90;;;;;;5057438;28;20146;-80
2020/12/28 06:12:34;;;;;;;5.65;3.72;;;4.70;99.90;;;;;;5050094;28;20039;-80
2020/12/28 06:15:00;;;;;;;6.47;3.95;;;4.70;99.90;;;;;;5053439;28;20096;-80
2020/12/28 06:17:33;;;;;;;6.90;3.97;;;4.70;99.90;;;;;;5049907;28;20543;-80
2020/12/28 06:20:01;;;;;;;6.05;4.15;;;4.70;99.90;;;;;;5050329;28;20120;-79
2020/12/28 06:22:26;;;;;;;6.05;3.88;;;4.70;99.90;;;;;;5058527;28;20040;-80
2020/12/28 06:25:18;;;;;;;4.70;3.78;;;4.60;99.90;;;;;;5050290;28;20036;-80
2020/12/28 06:27:45;;;;;;;8.30;4.43;;;4.70;99.90;;;;;;5044717;28;20489;-80
2020/12/28 06:30:21;;;;;;;7.90;3.80;;;4.70;99.90;;;;;;5050182;28;20094;-80
2020/12/28 06:33:01;;;;;;;6.65;4.00;;;4.70;99.90;;;;;;5049413;28;20036;-81
2020/12/28 06:35:30;;;;;;;5.93;3.70;;;4.80;99.90;;;;;;5039539;28;20625;-80
2020/12/28 06:37:59;;;;;;;10.50;4.25;;;4.70;99.90;;;;;;5050037;28;20429;-80
2020/12/28 06:40:44;;;;;;;7.90;3.83;;;4.70;99.90;;;;;;5055695;28;20465;-80
2020/12/28 06:43:15;;;;;;;5.43;3.88;;;4.70;99.90;;;;;;5050920;28;20048;-80
2020/12/28 06:45:42;;;;;;;10.30;4.13;;;4.70;99.90;;;;;;5045453;28;20053;-80
2020/12/28 06:48:18;;;;;;;5.65;3.65;;;4.80;99.90;;;;;;5048680;28;20021;-80
2020/12/28 06:50:43;;;;;;;11.15;3.70;;;4.80;99.90;;;;;;5052458;28;20035;-79
2020/12/28 06:53:09;;;;;;;10.20;5.10;;;4.80;99.90;;;;;;5050667;28;20025;-79
2020/12/28 06:55:34;;;;;;;8.82;4.07;;;4.80;99.90;;;;;;5050706;28;20033;-79
2020/12/28 06:58:01;;;;;;;8.43;3.58;;;4.80;99.90;;;;;;5054203;28;20032;-80
2020/12/28 07:00:27;;;;;;;7.85;3.78;;;4.90;99.90;;;;;;5051112;28;20029;-80
2020/12/28 07:02:55;;;;;;;6.95;3.75;;;4.80;99.90;;;;;;5054403;28;20086;-79
2020/12/28 07:05:25;;;;;;;11.05;3.45;;;4.80;99.90;;;;;;5049322;28;20035;-79
2020/12/28 07:07:52;;;;;;;8.25;3.53;;;4.80;99.90;;;;;;5048437;28;20395;-79
2020/12/28 07:10:23;;;;;;;4.75;3.13;;;4.90;99.90;;;;;;5049386;28;20116;-79
2020/12/28 07:12:49;;;;;;;5.63;3.28;;;4.90;99.90;;;;;;5049925;28;20029;-79
2020/12/28 07:15:18;;;;;;;9.20;3.53;;;4.90;99.90;;;;;;5049976;28;20087;-80
2020/12/28 07:17:44;;;;;;;3.83;2.80;;;4.90;99.90;;;;;;5046189;28;20025;-80
2020/12/28 07:20:13;;;;;;;4.85;3.08;;;4.90;99.90;;;;;;5048719;28;20120;-80
2020/12/28 07:22:42;;;;;;;7.13;3.35;;;4.90;99.90;;;;;;5050939;28;20071;-80
2020/12/28 07:25:11;;;;;;;5.80;3.65;;;4.90;99.90;;;;;;5047503;28;20236;-78
2020/12/28 07:27:42;;;;;;;7.57;4.20;;;4.90;99.90;;;;;;5049028;28;20091;-80
2020/12/28 07:30:09;;;;;;;;;;;4.90;99.90;;;;;;5044061;28;20107;-80
2020/12/28 07:32:34;;;;;;;4.13;3.05;;;5.00;99.90;;;;;;5050800;28;19916;-80
2020/12/28 07:35:00;;;;;;;3.78;3.05;;;5.00;99.90;;;;;;5040243;28;20021;-79
2020/12/28 07:37:30;;;;;;;5.22;3.58;;;5.00;99.90;;;;;;5048612;28;20088;-80
2020/12/28 07:39:56;;;;;;;8.73;3.08;;;5.00;99.90;;;;;;5046596;28;20108;-80
2020/12/28 07:42:26;;;;;;;4.32;2.95;;;5.00;99.90;;;;;;5048478;28;20041;-80
2020/12/28 07:44:57;;;;;;;7.03;3.30;;;5.00;99.90;;;;;;5051421;28;20059;-80
2020/12/28 07:47:47;;;;;;;;;;;5.00;99.90;;;;;;5052447;28;20114;-81
2020/12/28 07:50:16;;;;;;;5.88;4.30;;;5.00;99.90;;;;;;5038203;28;20007;-80
2020/12/28 07:53:13;;;;;;;5.13;2.95;;;5.00;99.90;;;;;;5048116;28;20031;-81
2020/12/28 07:55:45;;;;;;;6.10;3.03;;;5.00;99.90;;;;;;5047094;28;20048;-81
2020/12/28 07:59:05;;;;;;;5.55;3.00;;;5.00;99.90;;;;;;5046923;28;20110;-81
2020/12/28 08:01:38;;;;;;;4.88;2.97;;;5.00;99.90;;;;;;4926669;29;20134;-81
2020/12/28 08:04:06;;;;;;;8.40;3.42;;;5.00;99.90;;;;;;4927129;29;20040;-81
2020/12/28 08:06:32;;;;;;;4.65;3.15;;;5.00;99.90;;;;;;4911962;29;20150;-80
2020/12/28 08:09:05;;;;;;;8.30;3.00;;;5.00;99.90;;;;;;4912106;29;20066;-81
2020/12/28 08:11:32;;;;;;;5.60;4.15;;;5.00;99.90;;;;;;4921367;29;20032;-81
2020/12/28 08:13:58;;;;;;;4.45;3.25;;;5.00;99.90;;;;;;4911683;29;20110;-81
2020/12/28 08:16:27;;;;;;;7.50;3.85;;;5.00;99.90;;;;;;4912045;29;20036;-80
2020/12/28 08:18:56;;;;;;;4.82;3.50;;;4.90;99.90;;;;;;4928994;29;20031;-81
2020/12/28 08:21:22;;;;;;;8.40;4.45;;;4.90;99.90;;;;;;4911014;29;20237;-81
2020/12/28 08:23:59;;;;;;;4.55;3.08;;;4.90;99.90;;;;;;4911474;29;20047;-81
2020/12/28 08:26:28;;;;;;;5.95;3.22;;;4.90;99.90;;;;;;4928248;29;20152;-81
2020/12/28 08:28:56;;;;;;;9.50;4.40;;;4.90;99.90;;;;;;4928521;29;20040;-80
2020/12/28 08:31:29;;;;;;;4.70;3.03;;;4.90;99.90;;;;;;4912831;29;20056;-81
2020/12/28 08:34:09;;;;;;;5.38;4.10;;;4.90;99.90;;;;;;4926461;29;20101;-81
2020/12/28 08:36:37;;;;;;;5.25;3.83;;;4.90;99.90;;;;;;4936226;28;20043;-81
2020/12/28 08:39:35;;;;;;;6.68;3.35;;;4.90;99.90;;;;;;5040558;28;20569;-81
2020/12/28 08:42:02;;;;;;;4.70;3.35;;;4.90;99.90;;;;;;4993748;28;20085;-81
2020/12/28 08:44:40;;;;;;;8.45;3.40;;;4.90;99.90;;;;;;4991409;28;20042;-80
2020/12/28 08:47:12;;;;;;;9.38;3.90;;;5.00;99.90;;;;;;4974246;28;20031;-80
2020/12/28 08:49:41;;;;;;;7.22;3.38;;;5.00;99.90;;;;;;4972980;28;20045;-80
2020/12/28 08:52:14;;;;;;;5.18;3.40;;;5.00;99.90;;;;;;4974386;28;20482;-80
2020/12/28 08:54:40;;;;;;;7.55;3.75;;;5.00;99.90;;;;;;4986872;28;20041;-79
2020/12/28 08:57:17;;;;;;;4.22;3.38;;;5.00;99.90;;;;;;4973773;28;20339;-80
2020/12/28 08:59:43;;;;;;;5.35;3.72;;;5.00;99.90;;;;;;4989890;28;20508;-80
2020/12/28 09:02:17;;;;;;;6.35;4.05;;;5.10;99.90;;;;;;4990869;28;20038;-80
2020/12/28 09:04:43;;;;;;;5.45;3.78;;;5.00;99.90;;;;;;4991520;28;20076;-80
2020/12/28 09:07:09;;;;;;;5.22;3.85;;;5.10;99.90;;;;;;4970229;28;20549;-80
2020/12/28 09:09:35;;;;;;;6.28;3.83;;;5.10;99.90;;;;;;4971124;28;20050;-80
2020/12/28 09:12:01;;;;;;;7.80;3.83;;;5.00;99.90;;;;;;4984509;28;20074;-81
2020/12/28 09:14:26;;;;;;;5.75;3.85;;;5.00;99.90;;;;;;4970208;28;20116;-81
2020/12/28 09:16:52;;;;;;;7.63;3.90;;;5.10;99.90;;;;;;4999414;28;20039;-81
2020/12/28 09:19:18;;;;;;;7.03;4.40;;;5.10;99.90;;;;;;5050168;28;20032;-81
2020/12/28 09:21:44;;;;;;;11.25;4.32;;;5.10;99.90;;;;;;5043827;28;20112;-81
2020/12/28 09:24:09;;;;;;;4.32;3.05;;;5.20;99.90;;;;;;5047814;28;20029;-80
2020/12/28 09:26:35;;;;;;;6.40;3.25;;;5.30;99.90;;;;;;5046134;28;20090;-80
2020/12/28 09:29:01;;;;;;;4.95;3.40;;;5.40;99.90;;;;;;5046499;28;20052;-79
2020/12/28 09:31:26;;;;;;;12.63;3.13;;;5.40;99.90;;;;;;5050673;28;20107;-80
2020/12/28 09:33:52;;;;;;;5.90;3.35;;;5.50;99.90;;;;;;5048928;28;20538;-80
2020/12/28 09:36:21;;;;;;;7.53;3.70;;;5.50;99.90;;;;;;5048393;28;20017;-80
2020/12/28 09:38:48;;;;;;;4.05;3.00;;;5.50;99.90;;;;;;5044229;28;20036;-80
2020/12/28 09:41:14;;;;;;;6.57;3.15;;;5.60;99.90;;;;;;5048730;28;20028;-79
2020/12/28 09:43:41;;;;;;;3.63;2.53;;;5.60;99.90;;;;;;5060010;28;20091;-79
2020/12/28 09:46:08;;;;;;;4.63;3.30;;;5.60;99.90;;;;;;5051196;28;20440;-79
2020/12/28 09:48:34;;;;;;;5.68;3.58;;;5.60;99.90;;;;;;5048104;28;20032;-79
2020/12/28 09:51:02;;;;;;;7.20;3.80;;;5.60;99.90;;;;;;5067533;28;20035;-79
2020/12/28 09:53:27;;;;;;;4.13;3.20;;;5.70;99.90;;;;;;5049830;28;20071;-79
2020/12/28 09:55:53;;;;;;;5.45;3.65;;;5.60;99.90;;;;;;5067760;28;20150;-79
2020/12/28 09:58:18;;;;;;;5.03;3.00;;;5.70;99.90;;;;;;5048192;28;20396;-80
2020/12/28 10:00:44;;;;;;;5.70;3.40;;;5.70;99.90;;;;;;5050582;28;20096;-80
2020/12/28 10:03:10;;;;;;;5.75;3.53;;;5.70;99.90;;;;;;5066914;28;20032;-80
2020/12/28 10:05:36;;;;;;;4.40;3.05;;;5.80;99.90;;;;;;5047898;28;20036;-79
2020/12/28 10:08:02;;;;;;;5.28;3.33;;;5.80;99.90;;;;;;5050052;28;20020;-79
2020/12/28 10:10:27;;;;;;;8.27;2.88;;;5.90;99.90;;;;;;5062357;28;20025;-79
2020/12/28 10:12:53;;;;;;;5.25;3.40;;;5.90;99.90;;;;;;5044824;28;20085;-79
2020/12/28 10:15:19;;;;;;;5.15;3.90;;;6.00;99.90;;;;;;5034146;28;20029;-79
2020/12/28 10:18:21;;;;;;;5.32;3.60;;;5.90;99.90;;;;;;5067061;28;20036;-79
2020/12/28 10:20:48;;;;;;;6.35;4.10;;;5.90;99.90;;;;;;5050496;28;20696;-80
2020/12/28 10:23:14;;;;;;;6.20;4.00;;;6.00;99.90;;;;;;5050615;28;20040;-79
2020/12/28 10:25:39;;;;;;;5.57;4.18;;;6.00;99.90;;;;;;5049293;28;20029;-79
2020/12/28 10:28:05;;;;;;;5.63;4.18;;;5.80;99.90;;;;;;5048521;28;20547;-79
2020/12/28 10:30:31;;;;;;;8.20;5.20;;;5.90;99.90;;;;;;5064994;28;20032;-79
2020/12/28 10:32:59;;;;;;;9.50;4.95;;;5.80;99.90;;;;;;5045901;28;20047;-80
2020/12/28 10:35:25;;;;;;;10.85;6.03;;;5.80;99.90;;;;;;5066492;28;20021;-80
2020/12/28 10:37:50;;;;;;;6.95;5.30;;;5.90;99.90;;;;;;5049084;28;20086;-80
2020/12/28 10:40:16;;;;;;;9.07;5.85;;;5.90;99.90;;;;;;5049692;28;20027;-80
2020/12/28 10:42:43;;;;;;;8.45;5.95;;;6.00;99.90;;;;;;5043996;28;20102;-80
2020/12/28 10:45:08;;;;;;;9.65;7.53;;;6.00;99.90;;;;;;5046455;28;20098;-80
2020/12/28 10:47:34;;;;;;;11.30;7.03;;;6.00;99.90;;;;;;5053792;28;20037;-80
2020/12/28 10:50:00;;;;;;;7.88;6.10;;;6.00;99.90;;;;;;5049347;28;20032;-80
2020/12/28 10:52:25;;;;;;;12.98;6.50;;;6.00;99.90;;;;;;5052279;28;20585;-80
2020/12/28 10:54:51;;;;;;;9.85;6.88;;;6.00;99.90;;;;;;5052020;28;20032;-80
2020/12/28 10:57:16;;;;;;;11.48;8.05;;;6.00;99.90;;;;;;5054103;28;20033;-80
2020/12/28 10:59:42;;;;;;;10.95;8.13;;;6.00;99.90;;;;;;5050464;28;20074;-80
2020/12/28 11:02:07;;;;;;;12.07;8.45;;;6.00;99.90;;;;;;5067983;28;20052;-81
2020/12/28 11:04:33;;;;;;;17.48;9.65;;;6.00;99.90;;;;;;5051978;28;20118;-80
2020/12/28 11:06:59;;;;;;;12.15;8.95;;;6.00;99.90;;;;;;5056504;28;20032;-80
2020/12/28 11:09:25;;;;;;;13.68;9.63;;;6.00;99.90;;;;;;5060440;28;20024;-80
2020/12/28 11:11:51;;;;;;;17.77;10.00;;;6.10;99.90;;;;;;5055860;28;20031;-80
2020/12/28 11:14:17;;;;;;;13.25;9.45;;;6.10;99.90;;;;;;5052667;28;20050;-81
2020/12/28 11:16:43;;;;;;;14.35;9.65;;;6.30;99.90;;;;;;5052164;28;20132;-81
2020/12/28 11:19:09;;;;;;;13.52;10.02;;;6.40;99.90;;;;;;5048972;28;20119;-80
2020/12/28 11:21:34;;;;;;;16.85;9.93;;;6.60;99.90;;;;;;5051412;28;21031;-80
2020/12/28 11:24:03;;;;;;;13.93;10.20;;;6.60;99.90;;;;;;5049881;28;20111;-82
2020/12/28 11:26:30;;;;;;;12.98;9.73;;;6.50;99.90;;;;;;5055281;28;20485;-81
2020/12/28 11:28:58;;;;;;;13.88;9.68;;;6.50;99.90;;;;;;5050507;28;20036;-81
2020/12/28 11:31:24;;;;;;;15.80;10.55;;;6.90;99.90;;;;;;5051490;28;20047;-81
2020/12/28 11:33:50;;;;;;;12.23;8.90;;;7.90;99.90;;;;;;5065444;28;20021;-80
2020/12/28 11:36:16;;;;;;;14.80;8.18;;;8.00;99.90;;;;;;5055640;28;21357;-81
2020/12/28 11:38:43;;;;;;;15.35;9.73;;;7.60;99.90;;;;;;5067566;28;20037;-81
2020/12/28 11:41:09;;;;;;;18.23;10.02;;;7.20;99.90;;;;;;5051498;28;20120;-82
2020/12/28 11:43:35;;;;;;;16.70;9.65;;;7.10;99.90;;;;;;5049527;28;20056;-80
2020/12/28 11:46:01;;;;;;;25.02;10.85;;;7.00;99.90;;;;;;5052756;28;20028;-80
2020/12/28 11:48:27;;;;;;;20.15;10.30;;;6.80;99.90;;;;;;5053033;28;20024;-79
2020/12/28 11:50:53;;;;;;;17.08;10.90;;;6.80;99.90;;;;;;5050284;28;20025;-80
2020/12/28 11:53:18;;;;;;;14.82;10.32;;;6.80;99.90;;;;;;5054482;28;20041;-80
2020/12/28 11:56:03;;;;;;;17.95;11.23;;;6.70;99.90;;;;;;5052458;28;20162;-79
2020/12/28 11:58:34;;;;;;;19.95;11.13;;;6.50;99.90;;;;;;5050445;28;20025;-79
2020/12/28 12:01:00;;;;;;;15.60;10.70;;;6.50;99.90;;;;;;5053952;28;20200;-81
2020/12/28 12:03:28;;;;;;;17.77;10.85;;;6.40;99.90;;;;;;5049213;28;20051;-80
2020/12/28 12:05:58;;;;;;;21.00;12.35;;;6.40;99.90;;;;;;5048783;28;20055;-80
2020/12/28 12:08:27;;;;;;;18.08;11.13;;;6.40;99.90;;;;;;5049344;28;20039;-80
2020/12/28 12:10:53;;;;;;;17.25;10.52;;;6.40;99.90;;;;;;5051788;28;20024;-80
2020/12/28 12:13:20;;;;;;;21.05;10.27;;;6.50;99.90;;;;;;5050729;28;20164;-80
2020/12/28 12:15:47;;;;;;;17.33;10.55;;;6.40;99.90;;;;;;5049310;28;20029;-80
2020/12/28 12:18:13;;;;;;;14.50;9.52;;;6.30;99.90;;;;;;5065647;28;20040;-80
2020/12/28 12:20:38;;;;;;;15.40;10.15;;;6.40;99.90;;;;;;5068007;28;20116;-80
2020/12/28 12:23:05;;;;;;;15.23;10.27;;;6.40;99.90;;;;;;5069295;28;20044;-81
2020/12/28 12:25:35;;;;;;;17.48;10.80;;;6.50;99.90;;;;;;5054156;28;20116;-80
2020/12/28 12:28:01;;;;;;;17.50;11.43;;;6.50;99.90;;;;;;5069322;28;20060;-80
2020/12/28 12:30:28;;;;;;;32.85;16.05;;;6.40;99.90;;;;;;5055078;28;20025;-81
2020/12/28 12:32:57;;;;;;;26.40;13.32;;;6.20;99.90;;;;;;5052051;28;20037;-80
2020/12/28 12:35:23;;;;;;;24.30;13.32;;;6.40;99.90;;;;;;5051111;28;20036;-79
2020/12/28 12:37:48;;;;;;;27.67;10.98;;;6.40;99.90;;;;;;5054134;28;20032;-79
2020/12/28 12:40:14;;;;;;;18.10;10.98;;;6.50;99.90;;;;;;5053161;28;20025;-80
2020/12/28 12:42:40;;;;;;;17.17;9.98;;;6.60;99.90;;;;;;5048749;28;20093;-80
2020/12/28 12:45:05;;;;;;;16.00;10.55;;;6.70;99.90;;;;;;5056788;28;20024;-79
2020/12/28 12:47:31;;;;;;;15.32;9.05;;;6.60;99.90;;;;;;5047407;28;20078;-80
2020/12/28 12:49:57;;;;;;;19.55;10.45;;;6.70;99.90;;;;;;5037648;28;20037;-80
2020/12/28 12:52:25;;;;;;;14.98;10.35;;;6.80;99.90;;;;;;5049205;28;20054;-79
2020/12/28 12:54:51;;;;;;;14.90;10.52;;;6.80;99.90;;;;;;5051171;28;20040;-80
2020/12/28 12:57:20;;;;;;;14.98;9.43;;;6.80;99.90;;;;;;5051921;28;20350;-80